sensor_id;sensor_type;location;lat;lon;timestamp;temperature;humidity
52979;DHT22;63430;53.186;6.598;2022-10-18T00:01:56;13.40;99.90
52979;DHT22;63430;53.186;6.598;2022-10-18T00:03:59;13.50;99.90
52979;DHT22;63430;53.186;6.598;2022-10-18T00:06:01;14.00;99.90
52979;DHT22;63430;53.186;6.598;2022-10-18T00:08:04;13.50;99.90
52979;DHT22;63430;53.186;6.598;2022-10-18T00:10:07;13.80;99.90
52979;DHT22;63430;53.186;6.598;2022-10-18T00:12:10;13.40;99.90
52979;DHT22;63430;53.186;6.598;2022-10-18T00:14:15;13.40;99.90
52979;DHT22;63430;53.186;6.598;2022-10-18T00:16:18;13.30;99.90
52979;DHT22;63430;53.186;6.598;2022-10-18T00:18:20;13.40;99.90
52979;DHT22;63430;53.186;6.598;2022-10-18T00:20:23;13.90;99.90
52979;DHT22;63430;53.186;6.598;2022-10-18T00:22:25;13.40;99.90
52979;DHT22;63430;53.186;6.598;2022-10-18T00:24:27;13.70;99.90
52979;DHT22;63430;53.186;6.598;2022-10-18T00:26:30;13.40;99.90
52979;DHT22;63430;53.186;6.598;2022-10-18T00:28:33;13.40;99.90
52979;DHT22;63430;53.186;6.598;2022-10-18T00:30:39;13.70;99.90
52979;DHT22;63430;53.186;6.598;2022-10-18T00:32:42;13.30;99.90
52979;DHT22;63430;53.186;6.598;2022-10-18T00:34:46;13.50;99.90
52979;DHT22;63430;53.186;6.598;2022-10-18T00:36:48;13.30;99.90
52979;DHT22;63430;53.186;6.598;2022-10-18T00:38:51;13.30;99.90
52979;DHT22;63430;53.186;6.598;2022-10-18T00:40:53;13.30;99.90
52979;DHT22;63430;53.186;6.598;2022-10-18T00:42:56;14.10;99.90
52979;DHT22;63430;53.186;6.598;2022-10-18T00:45:17;13.30;99.90
52979;DHT22;63430;53.186;6.598;2022-10-18T00:47:23;13.30;99.90
52979;DHT22;63430;53.186;6.598;2022-10-18T00:49:29;13.30;99.90
52979;DHT22;63430;53.186;6.598;2022-10-18T00:51:35;13.30;99.90
52979;DHT22;63430;53.186;6.598;2022-10-18T00:53:39;13.50;99.90
52979;DHT22;63430;53.186;6.598;2022-10-18T00:55:41;13.30;99.90
52979;DHT22;63430;53.186;6.598;2022-10-18T00:57:44;13.90;99.90
52979;DHT22;63430;53.186;6.598;2022-10-18T00:59:47;14.10;99.90
52979;DHT22;63430;53.186;6.598;2022-10-18T01:01:49;14.00;99.90
52979;DHT22;63430;53.186;6.598;2022-10-18T01:03:55;13.30;99.90
52979;DHT22;63430;53.186;6.598;2022-10-18T01:05:58;13.20;99.90
52979;DHT22;63430;53.186;6.598;2022-10-18T01:08:24;13.20;99.90
52979;DHT22;63430;53.186;6.598;2022-10-18T01:10:35;13.20;99.90
52979;DHT22;63430;53.186;6.598;2022-10-18T01:12:46;13.20;99.90
52979;DHT22;63430;53.186;6.598;2022-10-18T01:14:58;13.20;99.90
52979;DHT22;63430;53.186;6.598;2022-10-18T01:17:11;13.90;99.90
52979;DHT22;63430;53.186;6.598;2022-10-18T01:19:31;13.20;99.90
52979;DHT22;63430;53.186;6.598;2022-10-18T01:21:42;13.10;99.90
52979;DHT22;63430;53.186;6.598;2022-10-18T01:26:36;13.20;99.90
52979;DHT22;63430;53.186;6.598;2022-10-18T01:28:51;13.10;99.90
52979;DHT22;63430;53.186;6.598;2022-10-18T01:31:00;13.10;99.90
52979;DHT22;63430;53.186;6.598;2022-10-18T01:33:10;13.20;99.90
52979;DHT22;63430;53.186;6.598;2022-10-18T01:35:16;13.20;99.90
52979;DHT22;63430;53.186;6.598;2022-10-18T01:37:21;13.10;99.90
52979;DHT22;63430;53.186;6.598;2022-10-18T01:39:36;13.10;99.90
52979;DHT22;63430;53.186;6.598;2022-10-18T01:41:40;13.20;99.90
52979;DHT22;63430;53.186;6.598;2022-10-18T01:43:45;13.20;99.90
52979;DHT22;63430;53.186;6.598;2022-10-18T01:45:49;13.80;99.90
52979;DHT22;63430;53.186;6.598;2022-10-18T01:47:54;13.20;99.90
52979;DHT22;63430;53.186;6.598;2022-10-18T01:49:58;13.20;99.90
52979;DHT22;63430;53.186;6.598;2022-10-18T01:52:01;13.20;99.90
52979;DHT22;63430;53.186;6.598;2022-10-18T01:54:03;13.10;99.90
52979;DHT22;63430;53.186;6.598;2022-10-18T01:56:23;13.10;99.90
52979;DHT22;63430;53.186;6.598;2022-10-18T01:58:30;13.40;99.90
52979;DHT22;63430;53.186;6.598;2022-10-18T02:00:38;13.20;99.90
52979;DHT22;63430;53.186;6.598;2022-10-18T02:02:45;13.20;99.90
52979;DHT22;63430;53.186;6.598;2022-10-18T02:04:57;13.20;99.90
52979;DHT22;63430;53.186;6.598;2022-10-18T02:07:06;13.20;99.90
52979;DHT22;63430;53.186;6.598;2022-10-18T02:09:18;13.10;99.90
52979;DHT22;63430;53.186;6.598;2022-10-18T02:11:21;13.70;99.90
52979;DHT22;63430;53.186;6.598;2022-10-18T02:13:28;13.20;99.90
52979;DHT22;63430;53.186;6.598;2022-10-18T02:15:33;13.20;99.90
52979;DHT22;63430;53.186;6.598;2022-10-18T02:17:37;13.10;99.90
52979;DHT22;63430;53.186;6.598;2022-10-18T02:19:44;13.80;99.90
52979;DHT22;63430;53.186;6.598;2022-10-18T02:21:50;13.10;99.90
52979;DHT22;63430;53.186;6.598;2022-10-18T02:23:56;13.10;99.90
52979;DHT22;63430;53.186;6.598;2022-10-18T02:26:00;13.10;99.90
52979;DHT22;63430;53.186;6.598;2022-10-18T02:28:06;13.10;99.90
52979;DHT22;63430;53.186;6.598;2022-10-18T02:30:09;13.60;99.90
52979;DHT22;63430;53.186;6.598;2022-10-18T02:32:17;13.10;99.90
52979;DHT22;63430;53.186;6.598;2022-10-18T02:34:23;13.10;99.90
52979;DHT22;63430;53.186;6.598;2022-10-18T02:36:32;13.10;99.90
52979;DHT22;63430;53.186;6.598;2022-10-18T02:38:37;13.10;99.90
52979;DHT22;63430;53.186;6.598;2022-10-18T02:40:41;13.10;99.90
52979;DHT22;63430;53.186;6.598;2022-10-18T02:42:46;13.00;99.90
52979;DHT22;63430;53.186;6.598;2022-10-18T02:44:49;13.10;99.90
52979;DHT22;63430;53.186;6.598;2022-10-18T02:46:51;13.10;99.90
52979;DHT22;63430;53.186;6.598;2022-10-18T02:48:53;13.10;99.90
52979;DHT22;63430;53.186;6.598;2022-10-18T02:50:56;13.20;99.90
52979;DHT22;63430;53.186;6.598;2022-10-18T02:52:58;13.10;99.90
52979;DHT22;63430;53.186;6.598;2022-10-18T02:55:09;13.00;99.90
52979;DHT22;63430;53.186;6.598;2022-10-18T02:57:11;13.50;99.90
52979;DHT22;63430;53.186;6.598;2022-10-18T02:59:14;13.00;99.90
52979;DHT22;63430;53.186;6.598;2022-10-18T03:01:16;13.00;99.90
52979;DHT22;63430;53.186;6.598;2022-10-18T03:03:22;13.00;99.90
52979;DHT22;63430;53.186;6.598;2022-10-18T03:05:24;13.00;99.90
52979;DHT22;63430;53.186;6.598;2022-10-18T03:07:26;13.00;99.90
52979;DHT22;63430;53.186;6.598;2022-10-18T03:09:28;13.00;99.90
52979;DHT22;63430;53.186;6.598;2022-10-18T03:11:33;13.00;99.90
52979;DHT22;63430;53.186;6.598;2022-10-18T03:13:36;13.00;99.90
52979;DHT22;63430;53.186;6.598;2022-10-18T03:15:38;13.10;99.90
52979;DHT22;63430;53.186;6.598;2022-10-18T03:17:41;12.90;99.90
52979;DHT22;63430;53.186;6.598;2022-10-18T03:19:43;13.00;99.90
52979;DHT22;63430;53.186;6.598;2022-10-18T03:21:46;13.30;99.90
52979;DHT22;63430;53.186;6.598;2022-10-18T03:23:48;13.10;99.90
52979;DHT22;63430;53.186;6.598;2022-10-18T03:25:50;13.20;99.90
52979;DHT22;63430;53.186;6.598;2022-10-18T03:27:55;13.30;99.90
52979;DHT22;63430;53.186;6.598;2022-10-18T03:29:58;13.10;99.90
52979;DHT22;63430;53.186;6.598;2022-10-18T03:32:02;13.70;99.90
52979;DHT22;63430;53.186;6.598;2022-10-18T03:34:04;12.90;99.90
52979;DHT22;63430;53.186;6.598;2022-10-18T03:36:07;12.80;99.90
52979;DHT22;63430;53.186;6.598;2022-10-18T03:38:12;12.90;99.90
52979;DHT22;63430;53.186;6.598;2022-10-18T03:40:15;12.80;99.90
52979;DHT22;63430;53.186;6.598;2022-10-18T03:42:17;12.90;99.90
52979;DHT22;63430;53.186;6.598;2022-10-18T03:44:23;12.90;99.90
52979;DHT22;63430;53.186;6.598;2022-10-18T03:46:25;13.70;99.90
52979;DHT22;63430;53.186;6.598;2022-10-18T03:48:28;12.90;99.90
52979;DHT22;63430;53.186;6.598;2022-10-18T03:50:30;13.00;99.90
52979;DHT22;63430;53.186;6.598;2022-10-18T03:52:32;12.80;99.90
52979;DHT22;63430;53.186;6.598;2022-10-18T03:54:35;12.80;99.90
52979;DHT22;63430;53.186;6.598;2022-10-18T03:56:38;13.00;99.90
52979;DHT22;63430;53.186;6.598;2022-10-18T03:58:40;12.80;99.90
52979;DHT22;63430;53.186;6.598;2022-10-18T04:00:48;12.80;99.90
52979;DHT22;63430;53.186;6.598;2022-10-18T04:02:50;12.80;99.90
52979;DHT22;63430;53.186;6.598;2022-10-18T04:04:56;12.80;99.90
52979;DHT22;63430;53.186;6.598;2022-10-18T04:06:59;12.80;99.90
52979;DHT22;63430;53.186;6.598;2022-10-18T04:09:02;12.80;99.90
52979;DHT22;63430;53.186;6.598;2022-10-18T04:11:10;13.20;99.90
52979;DHT22;63430;53.186;6.598;2022-10-18T04:13:13;13.60;99.90
52979;DHT22;63430;53.186;6.598;2022-10-18T04:15:16;13.30;99.90
52979;DHT22;63430;53.186;6.598;2022-10-18T04:17:21;13.30;99.90
52979;DHT22;63430;53.186;6.598;2022-10-18T04:19:24;13.10;99.90
52979;DHT22;63430;53.186;6.598;2022-10-18T04:21:26;12.70;99.90
52979;DHT22;63430;53.186;6.598;2022-10-18T04:23:28;12.70;99.90
52979;DHT22;63430;53.186;6.598;2022-10-18T04:25:32;12.70;99.90
52979;DHT22;63430;53.186;6.598;2022-10-18T04:27:35;12.60;99.90
52979;DHT22;63430;53.186;6.598;2022-10-18T04:29:37;12.60;99.90
52979;DHT22;63430;53.186;6.598;2022-10-18T04:31:39;12.60;99.90
52979;DHT22;63430;53.186;6.598;2022-10-18T04:33:44;13.50;99.90
52979;DHT22;63430;53.186;6.598;2022-10-18T04:35:49;13.40;99.90
52979;DHT22;63430;53.186;6.598;2022-10-18T04:37:53;12.50;99.90
52979;DHT22;63430;53.186;6.598;2022-10-18T04:39:55;12.90;99.90
52979;DHT22;63430;53.186;6.598;2022-10-18T04:41:57;13.50;99.90
52979;DHT22;63430;53.186;6.598;2022-10-18T04:44:00;12.50;99.90
52979;DHT22;63430;53.186;6.598;2022-10-18T04:46:02;12.80;99.90
52979;DHT22;63430;53.186;6.598;2022-10-18T04:48:05;12.50;99.90
52979;DHT22;63430;53.186;6.598;2022-10-18T04:50:10;12.50;99.90
52979;DHT22;63430;53.186;6.598;2022-10-18T04:52:13;12.50;99.90
52979;DHT22;63430;53.186;6.598;2022-10-18T04:54:15;12.50;99.90
52979;DHT22;63430;53.186;6.598;2022-10-18T04:56:17;12.40;99.90
52979;DHT22;63430;53.186;6.598;2022-10-18T04:58:19;12.40;99.90
52979;DHT22;63430;53.186;6.598;2022-10-18T05:00:22;12.70;99.90
52979;DHT22;63430;53.186;6.598;2022-10-18T05:02:24;12.40;99.90
52979;DHT22;63430;53.186;6.598;2022-10-18T05:04:26;12.40;99.90
52979;DHT22;63430;53.186;6.598;2022-10-18T05:06:31;12.40;99.90
52979;DHT22;63430;53.186;6.598;2022-10-18T05:08:34;12.40;99.90
52979;DHT22;63430;53.186;6.598;2022-10-18T05:10:37;12.30;99.90
52979;DHT22;63430;53.186;6.598;2022-10-18T05:12:39;13.00;99.90
52979;DHT22;63430;53.186;6.598;2022-10-18T05:14:41;12.30;99.90
52979;DHT22;63430;53.186;6.598;2022-10-18T05:16:44;12.30;99.90
52979;DHT22;63430;53.186;6.598;2022-10-18T05:18:46;13.00;99.90
52979;DHT22;63430;53.186;6.598;2022-10-18T05:20:48;12.20;99.90
52979;DHT22;63430;53.186;6.598;2022-10-18T05:22:53;12.30;99.90
52979;DHT22;63430;53.186;6.598;2022-10-18T05:24:56;12.20;99.90
52979;DHT22;63430;53.186;6.598;2022-10-18T05:26:58;12.20;99.90
52979;DHT22;63430;53.186;6.598;2022-10-18T05:29:01;12.50;99.90
52979;DHT22;63430;53.186;6.598;2022-10-18T05:31:05;12.20;99.90
52979;DHT22;63430;53.186;6.598;2022-10-18T05:33:08;13.30;99.90
52979;DHT22;63430;53.186;6.598;2022-10-18T05:35:11;12.20;99.90
52979;DHT22;63430;53.186;6.598;2022-10-18T05:37:13;12.10;99.90
52979;DHT22;63430;53.186;6.598;2022-10-18T05:39:20;13.20;99.90
52979;DHT22;63430;53.186;6.598;2022-10-18T05:41:22;12.10;99.90
52979;DHT22;63430;53.186;6.598;2022-10-18T05:43:26;12.10;99.90
52979;DHT22;63430;53.186;6.598;2022-10-18T05:45:29;12.00;99.90
52979;DHT22;63430;53.186;6.598;2022-10-18T05:47:32;12.10;99.90
52979;DHT22;63430;53.186;6.598;2022-10-18T05:49:54;12.00;99.90
52979;DHT22;63430;53.186;6.598;2022-10-18T05:51:56;12.00;99.90
52979;DHT22;63430;53.186;6.598;2022-10-18T05:54:00;12.00;99.90
52979;DHT22;63430;53.186;6.598;2022-10-18T05:56:06;11.40;99.90
52979;DHT22;63430;53.186;6.598;2022-10-18T05:58:09;11.90;99.90
52979;DHT22;63430;53.186;6.598;2022-10-18T06:00:12;11.90;99.90
52979;DHT22;63430;53.186;6.598;2022-10-18T06:02:14;11.90;99.90
52979;DHT22;63430;53.186;6.598;2022-10-18T06:04:17;11.90;99.90
52979;DHT22;63430;53.186;6.598;2022-10-18T06:06:19;11.80;99.90
52979;DHT22;63430;53.186;6.598;2022-10-18T06:08:21;11.80;99.90
52979;DHT22;63430;53.186;6.598;2022-10-18T06:10:24;11.80;99.90
52979;DHT22;63430;53.186;6.598;2022-10-18T06:12:28;11.80;99.90
52979;DHT22;63430;53.186;6.598;2022-10-18T06:14:31;12.00;99.90
52979;DHT22;63430;53.186;6.598;2022-10-18T06:16:33;11.70;99.90
52979;DHT22;63430;53.186;6.598;2022-10-18T06:18:35;11.70;99.90
52979;DHT22;63430;53.186;6.598;2022-10-18T06:20:37;11.70;99.90
52979;DHT22;63430;53.186;6.598;2022-10-18T06:22:40;12.10;99.90
52979;DHT22;63430;53.186;6.598;2022-10-18T06:24:42;12.10;99.90
52979;DHT22;63430;53.186;6.598;2022-10-18T06:26:44;10.90;99.90
52979;DHT22;63430;53.186;6.598;2022-10-18T06:28:49;11.60;99.90
52979;DHT22;63430;53.186;6.598;2022-10-18T06:30:52;11.60;99.90
52979;DHT22;63430;53.186;6.598;2022-10-18T06:32:58;11.50;99.90
52979;DHT22;63430;53.186;6.598;2022-10-18T06:35:00;11.50;99.90
52979;DHT22;63430;53.186;6.598;2022-10-18T06:37:02;11.80;99.90
52979;DHT22;63430;53.186;6.598;2022-10-18T06:39:05;11.50;99.90
52979;DHT22;63430;53.186;6.598;2022-10-18T06:41:09;11.90;99.90
52979;DHT22;63430;53.186;6.598;2022-10-18T06:43:11;11.50;99.90
52979;DHT22;63430;53.186;6.598;2022-10-18T06:45:25;11.60;99.90
52979;DHT22;63430;53.186;6.598;2022-10-18T06:47:27;11.90;99.90
52979;DHT22;63430;53.186;6.598;2022-10-18T06:49:29;11.40;99.90
52979;DHT22;63430;53.186;6.598;2022-10-18T06:51:32;11.40;99.90
52979;DHT22;63430;53.186;6.598;2022-10-18T06:53:36;11.70;99.90
52979;DHT22;63430;53.186;6.598;2022-10-18T06:55:45;11.50;99.90
52979;DHT22;63430;53.186;6.598;2022-10-18T06:57:47;12.10;99.90
52979;DHT22;63430;53.186;6.598;2022-10-18T06:59:50;12.20;99.90
52979;DHT22;63430;53.186;6.598;2022-10-18T07:01:55;12.10;99.90
52979;DHT22;63430;53.186;6.598;2022-10-18T07:03:58;11.30;99.90
52979;DHT22;63430;53.186;6.598;2022-10-18T07:06:00;11.40;99.90
52979;DHT22;63430;53.186;6.598;2022-10-18T07:08:03;11.40;99.90
52979;DHT22;63430;53.186;6.598;2022-10-18T07:10:07;11.30;99.90
52979;DHT22;63430;53.186;6.598;2022-10-18T07:12:13;11.40;99.90
52979;DHT22;63430;53.186;6.598;2022-10-18T07:14:18;11.30;99.90
52979;DHT22;63430;53.186;6.598;2022-10-18T07:16:21;11.40;99.90
52979;DHT22;63430;53.186;6.598;2022-10-18T07:18:26;11.30;99.90
52979;DHT22;63430;53.186;6.598;2022-10-18T07:20:28;11.30;99.90
52979;DHT22;63430;53.186;6.598;2022-10-18T07:22:30;11.30;99.90
52979;DHT22;63430;53.186;6.598;2022-10-18T07:24:33;11.30;99.90
52979;DHT22;63430;53.186;6.598;2022-10-18T07:26:35;11.40;99.90
52979;DHT22;63430;53.186;6.598;2022-10-18T07:28:38;11.40;99.90
52979;DHT22;63430;53.186;6.598;2022-10-18T07:30:40;11.40;99.90
52979;DHT22;63430;53.186;6.598;2022-10-18T07:32:42;12.70;99.90
52979;DHT22;63430;53.186;6.598;2022-10-18T07:34:47;11.40;99.90
52979;DHT22;63430;53.186;6.598;2022-10-18T07:36:50;11.40;99.90
52979;DHT22;63430;53.186;6.598;2022-10-18T07:38:55;11.50;99.90
52979;DHT22;63430;53.186;6.598;2022-10-18T07:40:58;11.40;99.90
52979;DHT22;63430;53.186;6.598;2022-10-18T07:43:02;12.30;99.90
52979;DHT22;63430;53.186;6.598;2022-10-18T07:45:06;11.90;99.90
52979;DHT22;63430;53.186;6.598;2022-10-18T07:47:09;11.50;99.90
52979;DHT22;63430;53.186;6.598;2022-10-18T07:49:12;12.30;99.90
52979;DHT22;63430;53.186;6.598;2022-10-18T07:51:17;11.60;99.90
52979;DHT22;63430;53.186;6.598;2022-10-18T07:53:20;11.50;99.90
52979;DHT22;63430;53.186;6.598;2022-10-18T07:55:22;11.60;99.90
52979;DHT22;63430;53.186;6.598;2022-10-18T07:57:24;11.50;99.90
52979;DHT22;63430;53.186;6.598;2022-10-18T07:59:27;11.60;99.90
52979;DHT22;63430;53.186;6.598;2022-10-18T08:01:29;11.60;99.90
52979;DHT22;63430;53.186;6.598;2022-10-18T08:03:32;11.60;99.90
52979;DHT22;63430;53.186;6.598;2022-10-18T08:05:34;11.60;99.90
52979;DHT22;63430;53.186;6.598;2022-10-18T08:07:39;11.70;99.90
52979;DHT22;63430;53.186;6.598;2022-10-18T08:09:41;11.70;99.90
52979;DHT22;63430;53.186;6.598;2022-10-18T08:11:43;11.90;99.90
52979;DHT22;63430;53.186;6.598;2022-10-18T08:13:45;11.70;99.90
52979;DHT22;63430;53.186;6.598;2022-10-18T08:15:48;12.10;99.90
52979;DHT22;63430;53.186;6.598;2022-10-18T08:17:50;11.80;99.90
52979;DHT22;63430;53.186;6.598;2022-10-18T08:19:53;11.80;99.90
52979;DHT22;63430;53.186;6.598;2022-10-18T08:22:15;11.90;99.90
52979;DHT22;63430;53.186;6.598;2022-10-18T08:24:20;12.00;99.90
52979;DHT22;63430;53.186;6.598;2022-10-18T08:26:23;12.00;99.90
52979;DHT22;63430;53.186;6.598;2022-10-18T08:28:25;12.10;99.90
52979;DHT22;63430;53.186;6.598;2022-10-18T08:30:28;12.20;99.90
52979;DHT22;63430;53.186;6.598;2022-10-18T08:32:30;12.30;99.90
52979;DHT22;63430;53.186;6.598;2022-10-18T08:34:33;12.50;99.90
52979;DHT22;63430;53.186;6.598;2022-10-18T08:36:36;12.60;99.90
52979;DHT22;63430;53.186;6.598;2022-10-18T08:38:40;12.60;99.90
52979;DHT22;63430;53.186;6.598;2022-10-18T08:40:45;12.70;99.90
52979;DHT22;63430;53.186;6.598;2022-10-18T08:42:57;12.80;99.90
52979;DHT22;63430;53.186;6.598;2022-10-18T08:45:05;12.90;99.90
52979;DHT22;63430;53.186;6.598;2022-10-18T08:47:19;13.00;99.90
52979;DHT22;63430;53.186;6.598;2022-10-18T08:49:28;13.10;99.90
52979;DHT22;63430;53.186;6.598;2022-10-18T08:51:37;13.20;99.90
52979;DHT22;63430;53.186;6.598;2022-10-18T08:53:48;13.30;99.90
52979;DHT22;63430;53.186;6.598;2022-10-18T08:56:01;13.40;99.90
52979;DHT22;63430;53.186;6.598;2022-10-18T08:58:15;13.50;99.90
52979;DHT22;63430;53.186;6.598;2022-10-18T09:00:19;13.60;99.90
52979;DHT22;63430;53.186;6.598;2022-10-18T09:02:34;13.60;99.90
52979;DHT22;63430;53.186;6.598;2022-10-18T09:04:46;13.70;99.90
52979;DHT22;63430;53.186;6.598;2022-10-18T09:06:56;13.80;99.90
52979;DHT22;63430;53.186;6.598;2022-10-18T09:09:18;13.90;99.90
52979;DHT22;63430;53.186;6.598;2022-10-18T09:11:35;14.60;99.90
52979;DHT22;63430;53.186;6.598;2022-10-18T09:13:58;14.10;99.90
52979;DHT22;63430;53.186;6.598;2022-10-18T09:16:07;14.10;99.90
52979;DHT22;63430;53.186;6.598;2022-10-18T09:18:25;14.30;99.90
52979;DHT22;63430;53.186;6.598;2022-10-18T09:20:36;14.50;99.90
52979;DHT22;63430;53.186;6.598;2022-10-18T09:22:51;14.40;99.90
52979;DHT22;63430;53.186;6.598;2022-10-18T09:24:59;14.60;99.90
52979;DHT22;63430;53.186;6.598;2022-10-18T09:27:13;14.60;99.90
52979;DHT22;63430;53.186;6.598;2022-10-18T09:29:29;14.70;99.90
52979;DHT22;63430;53.186;6.598;2022-10-18T09:31:41;15.10;99.90
52979;DHT22;63430;53.186;6.598;2022-10-18T09:33:51;14.80;99.90
52979;DHT22;63430;53.186;6.598;2022-10-18T09:35:56;14.80;99.90
52979;DHT22;63430;53.186;6.598;2022-10-18T09:38:02;15.80;99.90
52979;DHT22;63430;53.186;6.598;2022-10-18T09:40:14;15.20;99.90
52979;DHT22;63430;53.186;6.598;2022-10-18T09:42:30;15.10;99.90
52979;DHT22;63430;53.186;6.598;2022-10-18T09:44:40;15.20;99.90
52979;DHT22;63430;53.186;6.598;2022-10-18T09:46:48;15.30;99.90
52979;DHT22;63430;53.186;6.598;2022-10-18T09:48:55;16.10;99.90
52979;DHT22;63430;53.186;6.598;2022-10-18T09:51:02;15.60;99.90
52979;DHT22;63430;53.186;6.598;2022-10-18T09:53:14;15.70;99.90
52979;DHT22;63430;53.186;6.598;2022-10-18T09:55:22;16.00;99.90
52979;DHT22;63430;53.186;6.598;2022-10-18T09:57:38;15.30;99.90
52979;DHT22;63430;53.186;6.598;2022-10-18T09:59:44;16.20;99.90
52979;DHT22;63430;53.186;6.598;2022-10-18T10:01:51;16.10;99.90
52979;DHT22;63430;53.186;6.598;2022-10-18T10:03:53;15.80;99.90
52979;DHT22;63430;53.186;6.598;2022-10-18T10:06:02;16.50;99.90
52979;DHT22;63430;53.186;6.598;2022-10-18T10:08:31;15.90;99.90
52979;DHT22;63430;53.186;6.598;2022-10-18T10:10:35;15.90;99.90
52979;DHT22;63430;53.186;6.598;2022-10-18T10:12:44;16.50;99.90
52979;DHT22;63430;53.186;6.598;2022-10-18T10:15:09;16.00;99.90
52979;DHT22;63430;53.186;6.598;2022-10-18T10:17:25;15.70;99.90
52979;DHT22;63430;53.186;6.598;2022-10-18T10:19:36;16.10;99.90
52979;DHT22;63430;53.186;6.598;2022-10-18T10:21:45;16.90;99.90
52979;DHT22;63430;53.186;6.598;2022-10-18T10:23:52;16.10;99.90
52979;DHT22;63430;53.186;6.598;2022-10-18T10:26:05;16.10;99.90
52979;DHT22;63430;53.186;6.598;2022-10-18T10:28:26;15.90;99.90
52979;DHT22;63430;53.186;6.598;2022-10-18T10:30:31;16.20;99.90
52979;DHT22;63430;53.186;6.598;2022-10-18T10:32:49;16.30;99.90
52979;DHT22;63430;53.186;6.598;2022-10-18T10:34:52;16.30;99.90
52979;DHT22;63430;53.186;6.598;2022-10-18T10:36:56;17.10;99.90
52979;DHT22;63430;53.186;6.598;2022-10-18T10:39:10;16.40;99.90
52979;DHT22;63430;53.186;6.598;2022-10-18T10:41:19;16.50;99.90
52979;DHT22;63430;53.186;6.598;2022-10-18T10:43:31;16.60;99.90
52979;DHT22;63430;53.186;6.598;2022-10-18T10:45:58;16.70;99.90
52979;DHT22;63430;53.186;6.598;2022-10-18T10:48:05;16.80;99.90
52979;DHT22;63430;53.186;6.598;2022-10-18T10:50:09;16.80;99.90
52979;DHT22;63430;53.186;6.598;2022-10-18T10:52:17;16.70;99.90
52979;DHT22;63430;53.186;6.598;2022-10-18T10:54:30;16.60;99.90
52979;DHT22;63430;53.186;6.598;2022-10-18T10:56:54;16.60;99.90
52979;DHT22;63430;53.186;6.598;2022-10-18T10:59:13;16.50;99.90
52979;DHT22;63430;53.186;6.598;2022-10-18T11:01:19;16.80;99.90
52979;DHT22;63430;53.186;6.598;2022-10-18T11:03:23;16.60;99.90
52979;DHT22;63430;53.186;6.598;2022-10-18T11:05:30;16.70;99.90
52979;DHT22;63430;53.186;6.598;2022-10-18T11:07:45;16.70;99.90
52979;DHT22;63430;53.186;6.598;2022-10-18T11:09:57;16.60;99.90
52979;DHT22;63430;53.186;6.598;2022-10-18T11:12:12;16.60;99.90
52979;DHT22;63430;53.186;6.598;2022-10-18T11:14:22;16.70;99.90
52979;DHT22;63430;53.186;6.598;2022-10-18T11:16:32;16.50;99.90
52979;DHT22;63430;53.186;6.598;2022-10-18T11:18:37;16.50;99.90
52979;DHT22;63430;53.186;6.598;2022-10-18T11:20:46;16.30;99.90
52979;DHT22;63430;53.186;6.598;2022-10-18T11:22:58;16.60;99.90
52979;DHT22;63430;53.186;6.598;2022-10-18T11:25:05;17.10;99.90
52979;DHT22;63430;53.186;6.598;2022-10-18T11:27:16;16.70;99.90
52979;DHT22;63430;53.186;6.598;2022-10-18T11:29:42;16.70;99.90
52979;DHT22;63430;53.186;6.598;2022-10-18T11:31:55;16.70;99.90
52979;DHT22;63430;53.186;6.598;2022-10-18T11:34:15;16.50;99.90
52979;DHT22;63430;53.186;6.598;2022-10-18T11:36:33;16.30;99.90
52979;DHT22;63430;53.186;6.598;2022-10-18T11:38:55;16.10;99.90
52979;DHT22;63430;53.186;6.598;2022-10-18T11:41:43;16.80;99.90
52979;DHT22;63430;53.186;6.598;2022-10-18T11:43:53;15.60;99.90
52979;DHT22;63430;53.186;6.598;2022-10-18T11:46:30;16.80;99.90
52979;DHT22;63430;53.186;6.598;2022-10-18T11:49:05;16.00;99.90
52979;DHT22;63430;53.186;6.598;2022-10-18T11:51:14;15.80;99.90
52979;DHT22;63430;53.186;6.598;2022-10-18T11:53:54;15.70;99.90
52979;DHT22;63430;53.186;6.598;2022-10-18T11:56:07;15.70;99.90
52979;DHT22;63430;53.186;6.598;2022-10-18T11:58:37;15.60;99.90
52979;DHT22;63430;53.186;6.598;2022-10-18T12:00:46;15.50;99.90
52979;DHT22;63430;53.186;6.598;2022-10-18T12:03:05;15.50;99.90
52979;DHT22;63430;53.186;6.598;2022-10-18T12:05:12;15.60;99.90
52979;DHT22;63430;53.186;6.598;2022-10-18T12:07:30;15.60;99.90
52979;DHT22;63430;53.186;6.598;2022-10-18T12:09:36;15.50;99.90
52979;DHT22;63430;53.186;6.598;2022-10-18T12:11:44;15.70;99.90
52979;DHT22;63430;53.186;6.598;2022-10-18T12:13:51;15.60;99.90
52979;DHT22;63430;53.186;6.598;2022-10-18T12:15:54;15.50;99.90
52979;DHT22;63430;53.186;6.598;2022-10-18T12:18:02;15.60;99.90
52979;DHT22;63430;53.186;6.598;2022-10-18T12:20:11;15.70;99.90
52979;DHT22;63430;53.186;6.598;2022-10-18T12:22:20;15.90;99.90
52979;DHT22;63430;53.186;6.598;2022-10-18T12:24:28;17.10;99.90
52979;DHT22;63430;53.186;6.598;2022-10-18T12:26:32;16.10;99.90
52979;DHT22;63430;53.186;6.598;2022-10-18T12:28:46;16.70;99.90
52979;DHT22;63430;53.186;6.598;2022-10-18T12:30:55;15.90;99.90
52979;DHT22;63430;53.186;6.598;2022-10-18T12:33:09;15.70;99.90
52979;DHT22;63430;53.186;6.598;2022-10-18T12:35:33;16.40;99.90
52979;DHT22;63430;53.186;6.598;2022-10-18T12:37:51;16.20;99.90
52979;DHT22;63430;53.186;6.598;2022-10-18T12:40:00;16.30;99.90
52979;DHT22;63430;53.186;6.598;2022-10-18T12:42:17;16.40;99.90
52979;DHT22;63430;53.186;6.598;2022-10-18T12:44:25;16.60;99.90
52979;DHT22;63430;53.186;6.598;2022-10-18T12:46:43;16.70;99.90
52979;DHT22;63430;53.186;6.598;2022-10-18T12:49:04;16.70;99.90
52979;DHT22;63430;53.186;6.598;2022-10-18T12:51:12;16.90;99.90
52979;DHT22;63430;53.186;6.598;2022-10-18T12:53:27;17.80;99.90
52979;DHT22;63430;53.186;6.598;2022-10-18T12:55:51;17.00;99.90
52979;DHT22;63430;53.186;6.598;2022-10-18T13:06:00;17.10;99.90
52979;DHT22;63430;53.186;6.598;2022-10-18T13:08:35;17.10;98.50
52979;DHT22;63430;53.186;6.598;2022-10-18T13:10:45;17.10;99.20
52979;DHT22;63430;53.186;6.598;2022-10-18T13:12:57;17.00;98.60
52979;DHT22;63430;53.186;6.598;2022-10-18T13:15:34;17.10;99.10
52979;DHT22;63430;53.186;6.598;2022-10-18T13:17:46;17.60;99.70
52979;DHT22;63430;53.186;6.598;2022-10-18T13:19:56;17.10;99.40
52979;DHT22;63430;53.186;6.598;2022-10-18T13:22:35;17.40;99.40
52979;DHT22;63430;53.186;6.598;2022-10-18T13:24:44;16.90;99.90
52979;DHT22;63430;53.186;6.598;2022-10-18T13:26:57;16.80;99.90
52979;DHT22;63430;53.186;6.598;2022-10-18T13:29:36;17.70;99.90
52979;DHT22;63430;53.186;6.598;2022-10-18T13:31:47;16.70;99.90
52979;DHT22;63430;53.186;6.598;2022-10-18T13:33:52;16.90;99.90
52979;DHT22;63430;53.186;6.598;2022-10-18T13:35:55;16.80;99.90